PWSweather.com
Personal Weather Stations
Station Observations
SHAHALMS1
Eftra, Falkenberg, HA

EftraFalkenberg, HA

Lat: 56.85, Lon: 12.65

Elevation: 140

Station Type:

http://hem.passagen.se/risarp101

High Low Average
Temperature 45.0°F7.2°C 29.5°F-1.4°C 37.3°F2.9°C
Dew Point 16.6°F-8.6°C 5.8°F-14.6°C 13.1°F-10.5°C
Winds 11.9 mph 19.2 kmh Calm Calm 7.0 mph SE11.3 kmh SE
Wind Gusts 22.2 mph35.7 kmh -- 14.0 mph22.5 kmh
Humidity 47% 27% 37%
Pressure 30.15 in1021.0 mb 30.04 in1017.3 mb -
Precipitation 0.00 in0.0 mm - -
Hour Temp Dew Point Humidity Winds Wind Gusts Pressure Precip Precip Rate Daily Precip Total
12:00 AM 34.5°F1.4°C 15.8°F-9.0°C 46% 0.7 mph N1.1 kmh N 7.9 mph12.7 kmh 30.07 in1018.3 mb 0.00 in0.0 mm 0.00 in0.0 mm 0.00 in0.0 mm
12:17 AM 34.2°F1.2°C 15.5°F-9.2°C 46% 0.3 mph NNE0.5 kmh NNE 3.9 mph6.3 kmh 30.07 in1018.3 mb 0.00 in0.0 mm 0.00 in0.0 mm 0.00 in0.0 mm
12:30 AM 33.8°F1.0°C 15.2°F-9.3°C 46% 0.9 mph NE1.4 kmh NE 4.7 mph7.6 kmh 30.07 in1018.3 mb 0.00 in0.0 mm 0.00 in0.0 mm 0.00 in0.0 mm
12:45 AM 33.6°F0.9°C 15.0°F-9.4°C 46% 1.7 mph NE2.7 kmh NE 8.9 mph14.3 kmh 30.07 in1018.3 mb 0.00 in0.0 mm 0.00 in0.0 mm 0.00 in0.0 mm
01:00 AM 33.3°F0.7°C 14.2°F-9.9°C 45% 0.7 mph NE1.1 kmh NE 5.0 mph8.0 kmh 30.07 in1018.3 mb 0.00 in0.0 mm 0.00 in0.0 mm 0.00 in0.0 mm
01:15 AM 33.1°F0.6°C 14.0°F-10.0°C 45% 2.4 mph NE3.9 kmh NE 6.8 mph10.9 kmh 30.04 in1017.3 mb 0.00 in0.0 mm 0.00 in0.0 mm 0.00 in0.0 mm
01:30 AM 33.1°F0.6°C 14.0°F-10.0°C 45% 6.4 mph NNE10.3 kmh NNE 11.8 mph19.0 kmh 30.07 in1018.3 mb 0.00 in0.0 mm 0.00 in0.0 mm 0.00 in0.0 mm
01:45 AM 32.9°F0.5°C 13.9°F-10.1°C 45% 4.9 mph NNE7.9 kmh NNE 8.9 mph14.3 kmh 30.07 in1018.3 mb 0.00 in0.0 mm 0.00 in0.0 mm 0.00 in0.0 mm
02:00 AM 32.5°F0.3°C 13.5°F-10.3°C 45% 2.1 mph NNE3.4 kmh NNE 7.9 mph12.7 kmh 30.07 in1018.3 mb 0.00 in0.0 mm 0.00 in0.0 mm 0.00 in0.0 mm
02:15 AM 32.0°F0.0°C 13.0°F-10.6°C 45% 2.2 mph NNE3.5 kmh NNE 10.4 mph16.7 kmh 30.07 in1018.3 mb 0.00 in0.0 mm 0.00 in0.0 mm 0.00 in0.0 mm
02:30 AM 32.0°F0.0°C 13.5°F-10.3°C 46% 6.1 mph N9.8 kmh N 10.4 mph16.7 kmh 30.07 in1018.3 mb 0.00 in0.0 mm 0.00 in0.0 mm 0.00 in0.0 mm
02:45 AM 31.8°F-0.1°C 13.4°F-10.3°C 46% 5.8 mph NNE9.3 kmh NNE 10.0 mph16.1 kmh 30.09 in1019.0 mb 0.00 in0.0 mm 0.00 in0.0 mm 0.00 in0.0 mm
03:00 AM 31.6°F-0.2°C 13.2°F-10.4°C 46% 5.6 mph N9.0 kmh N 10.4 mph16.7 kmh 30.07 in1018.3 mb 0.00 in0.0 mm 0.00 in0.0 mm 0.00 in0.0 mm
03:15 AM 31.3°F-0.4°C 12.9°F-10.6°C 46% 6.2 mph N10.0 kmh N 11.8 mph19.0 kmh 30.07 in1018.3 mb 0.00 in0.0 mm 0.00 in0.0 mm 0.00 in0.0 mm
03:30 AM 31.1°F-0.5°C 12.7°F-10.7°C 46% 7.5 mph N12.1 kmh N 12.5 mph20.1 kmh 30.07 in1018.3 mb 0.00 in0.0 mm 0.00 in0.0 mm 0.00 in0.0 mm
03:45 AM 30.6°F-0.8°C 12.7°F-10.7°C 47% 6.4 mph N10.3 kmh N 12.9 mph20.8 kmh 30.09 in1019.0 mb 0.00 in0.0 mm 0.00 in0.0 mm 0.00 in0.0 mm
04:00 AM 30.2°F-1.0°C 12.4°F-10.9°C 47% 5.0 mph N8.0 kmh N 10.0 mph16.1 kmh 30.09 in1019.0 mb 0.00 in0.0 mm 0.00 in0.0 mm 0.00 in0.0 mm
04:15 AM 29.8°F-1.2°C 12.0°F-11.1°C 47% 4.6 mph N7.4 kmh N 10.4 mph16.7 kmh 30.09 in1019.0 mb 0.00 in0.0 mm 0.00 in0.0 mm 0.00 in0.0 mm
04:30 AM 29.7°F-1.3°C 11.9°F-11.2°C 47% 5.6 mph N9.0 kmh N 12.9 mph20.8 kmh 30.09 in1019.0 mb 0.00 in0.0 mm 0.00 in0.0 mm 0.00 in0.0 mm
04:45 AM 29.7°F-1.3°C 11.9°F-11.2°C 47% 5.7 mph N9.2 kmh N 12.2 mph19.6 kmh 30.12 in1020.0 mb 0.00 in0.0 mm 0.00 in0.0 mm 0.00 in0.0 mm
05:00 AM 29.7°F-1.3°C 11.9°F-11.2°C 47% 6.4 mph N10.3 kmh N 11.8 mph19.0 kmh 30.09 in1019.0 mb 0.00 in0.0 mm 0.00 in0.0 mm 0.00 in0.0 mm
05:15 AM 29.5°F-1.4°C 11.7°F-11.3°C 47% 6.0 mph N9.7 kmh N 10.7 mph17.2 kmh 30.12 in1020.0 mb 0.00 in0.0 mm 0.00 in0.0 mm 0.00 in0.0 mm
05:30 AM 29.7°F-1.3°C 11.4°F-11.4°C 46% 8.6 mph N13.8 kmh N 13.6 mph21.9 kmh 30.12 in1020.0 mb 0.00 in0.0 mm 0.00 in0.0 mm 0.00 in0.0 mm
05:45 AM 30.9°F-0.6°C 13.0°F-10.6°C 47% 8.6 mph N13.8 kmh N 13.6 mph21.9 kmh 30.12 in1020.0 mb 0.00 in0.0 mm 0.00 in0.0 mm 0.00 in0.0 mm
06:00 AM 31.1°F-0.5°C 12.7°F-10.7°C 46% 8.0 mph N12.9 kmh N 14.0 mph22.5 kmh 30.12 in1020.0 mb 0.00 in0.0 mm 0.00 in0.0 mm 0.00 in0.0 mm
06:15 AM 31.1°F-0.5°C 12.7°F-10.7°C 46% 7.4 mph N11.9 kmh N 14.0 mph22.5 kmh 30.09 in1019.0 mb 0.00 in0.0 mm 0.00 in0.0 mm 0.00 in0.0 mm
06:30 AM 32.0°F0.0°C 13.5°F-10.3°C 46% 7.1 mph N11.4 kmh N 14.0 mph22.5 kmh 30.09 in1019.0 mb 0.00 in0.0 mm 0.00 in0.0 mm 0.00 in0.0 mm
06:45 AM 32.9°F0.5°C 14.4°F-9.8°C 46% 9.0 mph N14.5 kmh N 15.7 mph25.3 kmh 30.12 in1020.0 mb 0.00 in0.0 mm 0.00 in0.0 mm 0.00 in0.0 mm
07:00 AM 34.3°F1.3°C 15.2°F-9.3°C 45% 7.6 mph N12.2 kmh N 13.6 mph21.9 kmh 30.12 in1020.0 mb 0.00 in0.0 mm 0.00 in0.0 mm 0.00 in0.0 mm
07:15 AM 35.6°F2.0°C 16.3°F-8.7°C 45% 9.3 mph N15.0 kmh N 16.8 mph27.0 kmh 30.09 in1019.0 mb 0.00 in0.0 mm 0.00 in0.0 mm 0.00 in0.0 mm
07:30 AM 36.0°F2.2°C 16.1°F-8.8°C 44% 9.9 mph N15.9 kmh N 19.7 mph31.7 kmh 30.09 in1019.0 mb 0.00 in0.0 mm 0.00 in0.0 mm 0.00 in0.0 mm
07:45 AM 37.0°F2.8°C 16.6°F-8.6°C 43% 8.0 mph N12.9 kmh N 17.5 mph28.2 kmh 30.12 in1020.0 mb 0.00 in0.0 mm 0.00 in0.0 mm 0.00 in0.0 mm
08:00 AM 37.9°F3.3°C 16.3°F-8.7°C 41% 9.1 mph N14.6 kmh N 16.8 mph27.0 kmh 30.09 in1019.0 mb 0.00 in0.0 mm 0.00 in0.0 mm 0.00 in0.0 mm
08:24 AM 37.0°F2.8°C 15.5°F-9.2°C 41% 8.1 mph N13.0 kmh N 10.0 mph16.1 kmh 30.09 in1019.0 mb 0.00 in0.0 mm 0.00 in0.0 mm 0.00 in0.0 mm
08:25 AM 37.0°F2.8°C 15.5°F-9.2°C 41% 9.3 mph N15.0 kmh N 12.9 mph20.8 kmh 30.09 in1019.0 mb 0.00 in0.0 mm 0.00 in0.0 mm 0.00 in0.0 mm
08:26 AM 37.0°F2.8°C 15.5°F-9.2°C 41% 9.9 mph N15.9 kmh N 13.6 mph21.9 kmh 30.09 in1019.0 mb 0.00 in0.0 mm 0.00 in0.0 mm 0.00 in0.0 mm
08:27 AM 37.0°F2.8°C 15.5°F-9.2°C 41% 10.7 mph N17.2 kmh N 16.1 mph25.9 kmh 30.09 in1019.0 mb 0.00 in0.0 mm 0.00 in0.0 mm 0.00 in0.0 mm
08:28 AM 37.0°F2.8°C 15.5°F-9.2°C 41% 10.6 mph N17.1 kmh N 16.1 mph25.9 kmh 30.09 in1019.0 mb 0.00 in0.0 mm 0.00 in0.0 mm 0.00 in0.0 mm
08:29 AM 37.2°F2.9°C 15.6°F-9.1°C 41% 10.0 mph N16.1 kmh N 16.1 mph25.9 kmh 30.09 in1019.0 mb 0.00 in0.0 mm 0.00 in0.0 mm 0.00 in0.0 mm
08:30 AM 37.2°F2.9°C 15.6°F-9.1°C 41% 9.3 mph N15.0 kmh N 16.1 mph25.9 kmh 30.09 in1019.0 mb 0.00 in0.0 mm 0.00 in0.0 mm 0.00 in0.0 mm
08:31 AM 37.4°F3.0°C 16.4°F-8.7°C 42% 8.8 mph N14.2 kmh N 16.1 mph25.9 kmh 30.09 in1019.0 mb 0.00 in0.0 mm 0.00 in0.0 mm 0.00 in0.0 mm
08:32 AM 37.4°F3.0°C 16.4°F-8.7°C 42% 8.4 mph N13.5 kmh N 16.1 mph25.9 kmh 30.09 in1019.0 mb 0.00 in0.0 mm 0.00 in0.0 mm 0.00 in0.0 mm
08:45 AM 37.6°F3.1°C 15.4°F-9.2°C 40% 8.4 mph N13.5 kmh N 10.4 mph16.7 kmh 30.12 in1020.0 mb 0.00 in0.0 mm 0.00 in0.0 mm 0.00 in0.0 mm
08:46 AM 37.6°F3.1°C 15.4°F-9.2°C 40% 9.0 mph N14.5 kmh N 11.8 mph19.0 kmh 30.12 in1020.0 mb 0.00 in0.0 mm 0.00 in0.0 mm 0.00 in0.0 mm
08:47 AM 37.6°F3.1°C 14.8°F-9.6°C 39% 9.5 mph N15.3 kmh N 12.9 mph20.8 kmh 30.12 in1020.0 mb 0.00 in0.0 mm 0.00 in0.0 mm 0.00 in0.0 mm
08:48 AM 37.6°F3.1°C 14.8°F-9.6°C 39% 9.6 mph N15.4 kmh N 12.9 mph20.8 kmh 30.12 in1020.0 mb 0.00 in0.0 mm 0.00 in0.0 mm 0.00 in0.0 mm
09:00 AM 37.8°F3.2°C 13.8°F-10.1°C 37% 10.2 mph N16.4 kmh N 18.3 mph29.5 kmh 30.09 in1019.0 mb 0.00 in0.0 mm 0.00 in0.0 mm 0.00 in0.0 mm
09:15 AM 38.3°F3.5°C 14.3°F-9.8°C 37% 8.9 mph NNE14.3 kmh NNE 17.9 mph28.8 kmh 30.12 in1020.0 mb 0.00 in0.0 mm 0.00 in0.0 mm 0.00 in0.0 mm
09:30 AM 38.7°F3.7°C 14.6°F-9.7°C 37% 7.8 mph NNE12.6 kmh NNE 12.9 mph20.8 kmh 30.09 in1019.0 mb 0.00 in0.0 mm 0.00 in0.0 mm 0.00 in0.0 mm
09:45 AM 38.3°F3.5°C 13.0°F-10.6°C 35% 10.6 mph N17.1 kmh N 21.5 mph34.6 kmh 30.09 in1019.0 mb 0.00 in0.0 mm 0.00 in0.0 mm 0.00 in0.0 mm
10:00 AM 38.5°F3.6°C 13.2°F-10.4°C 35% 10.1 mph N16.3 kmh N 20.0 mph32.2 kmh 30.12 in1020.0 mb 0.00 in0.0 mm 0.00 in0.0 mm 0.00 in0.0 mm
10:15 AM 38.8°F3.8°C 14.1°F-9.9°C 36% 9.7 mph N15.6 kmh N 17.5 mph28.2 kmh 30.09 in1019.0 mb 0.00 in0.0 mm 0.00 in0.0 mm 0.00 in0.0 mm
10:30 AM 39.4°F4.1°C 14.6°F-9.7°C 36% 6.8 mph NNE10.9 kmh NNE 14.0 mph22.5 kmh 30.12 in1020.0 mb 0.00 in0.0 mm 0.00 in0.0 mm 0.00 in0.0 mm
10:45 AM 39.2°F4.0°C 14.4°F-9.8°C 36% 6.9 mph NNW11.1 kmh NNW 12.9 mph20.8 kmh 30.12 in1020.0 mb 0.00 in0.0 mm 0.00 in0.0 mm 0.00 in0.0 mm
11:00 AM 39.7°F4.3°C 14.3°F-9.8°C 35% 8.3 mph N13.4 kmh N 16.8 mph27.0 kmh 30.12 in1020.0 mb 0.00 in0.0 mm 0.00 in0.0 mm 0.00 in0.0 mm
11:15 AM 40.3°F4.6°C 15.4°F-9.2°C 36% 10.9 mph N17.5 kmh N 20.0 mph32.2 kmh 30.12 in1020.0 mb 0.00 in0.0 mm 0.00 in0.0 mm 0.00 in0.0 mm
11:30 AM 40.5°F4.7°C 14.3°F-9.8°C 34% 9.9 mph NNW15.9 kmh NNW 16.8 mph27.0 kmh 30.12 in1020.0 mb 0.00 in0.0 mm 0.00 in0.0 mm 0.00 in0.0 mm
11:45 AM 40.8°F4.9°C 14.6°F-9.7°C 34% 10.2 mph NNW16.4 kmh NNW 17.2 mph27.7 kmh 30.09 in1019.0 mb 0.00 in0.0 mm 0.00 in0.0 mm 0.00 in0.0 mm
12:00 PM 41.2°F5.1°C 14.2°F-9.9°C 33% 9.3 mph NNW15.0 kmh NNW 21.1 mph34.0 kmh 30.09 in1019.0 mb 0.00 in0.0 mm 0.00 in0.0 mm 0.00 in0.0 mm
12:15 PM 41.4°F5.2°C 15.1°F-9.4°C 34% 8.6 mph NNW13.8 kmh NNW 17.5 mph28.2 kmh 30.09 in1019.0 mb 0.00 in0.0 mm 0.00 in0.0 mm 0.00 in0.0 mm
12:30 PM 41.7°F5.4°C 14.7°F-9.6°C 33% 8.5 mph N13.7 kmh N 20.0 mph32.2 kmh 30.09 in1019.0 mb 0.00 in0.0 mm 0.00 in0.0 mm 0.00 in0.0 mm
12:45 PM 42.3°F5.7°C 15.9°F-8.9°C 34% 9.1 mph N14.6 kmh N 20.8 mph33.5 kmh 30.09 in1019.0 mb 0.00 in0.0 mm 0.00 in0.0 mm 0.00 in0.0 mm
01:00 PM 42.8°F6.0°C 15.6°F-9.1°C 33% 7.8 mph NNW12.6 kmh NNW 15.7 mph25.3 kmh 30.09 in1019.0 mb 0.00 in0.0 mm 0.00 in0.0 mm 0.00 in0.0 mm
01:15 PM 43.0°F6.1°C 15.1°F-9.4°C 32% 7.9 mph N12.7 kmh N 16.8 mph27.0 kmh 30.07 in1018.3 mb 0.00 in0.0 mm 0.00 in0.0 mm 0.00 in0.0 mm
01:30 PM 43.2°F6.2°C 15.3°F-9.3°C 32% 10.8 mph N17.4 kmh N 20.4 mph32.8 kmh 30.07 in1018.3 mb 0.00 in0.0 mm 0.00 in0.0 mm 0.00 in0.0 mm
01:45 PM 43.2°F6.2°C 14.5°F-9.7°C 31% 4.6 mph NNW7.4 kmh NNW 13.6 mph21.9 kmh 30.07 in1018.3 mb 0.00 in0.0 mm 0.00 in0.0 mm 0.00 in0.0 mm
02:00 PM 43.7°F6.5°C 14.2°F-9.9°C 30% 11.0 mph NNW17.7 kmh NNW 20.8 mph33.5 kmh 30.07 in1018.3 mb 0.00 in0.0 mm 0.00 in0.0 mm 0.00 in0.0 mm
02:15 PM 43.9°F6.6°C 15.2°F-9.3°C 31% 9.4 mph N15.1 kmh N 20.4 mph32.8 kmh 30.07 in1018.3 mb 0.00 in0.0 mm 0.00 in0.0 mm 0.00 in0.0 mm
02:30 PM 44.2°F6.8°C 14.7°F-9.6°C 30% 9.5 mph N15.3 kmh N 20.4 mph32.8 kmh 30.04 in1017.3 mb 0.00 in0.0 mm 0.00 in0.0 mm 0.00 in0.0 mm
02:45 PM 44.4°F6.9°C 14.9°F-9.5°C 30% 11.2 mph N18.0 kmh N 21.5 mph34.6 kmh 30.09 in1019.0 mb 0.00 in0.0 mm 0.00 in0.0 mm 0.00 in0.0 mm
03:00 PM 44.6°F7.0°C 14.3°F-9.8°C 29% 10.4 mph N16.7 kmh N 18.3 mph29.5 kmh 30.07 in1018.3 mb 0.00 in0.0 mm 0.00 in0.0 mm 0.00 in0.0 mm
03:15 PM 44.8°F7.1°C 14.4°F-9.8°C 29% 8.6 mph NNW13.8 kmh NNW 17.2 mph27.7 kmh 30.07 in1018.3 mb 0.00 in0.0 mm 0.00 in0.0 mm 0.00 in0.0 mm
03:30 PM 44.8°F7.1°C 14.4°F-9.8°C 29% 6.5 mph NW10.5 kmh NW 12.5 mph20.1 kmh 30.07 in1018.3 mb 0.00 in0.0 mm 0.00 in0.0 mm 0.00 in0.0 mm
03:45 PM 45.0°F7.2°C 13.8°F-10.1°C 28% 9.9 mph NNW15.9 kmh NNW 21.1 mph34.0 kmh 30.07 in1018.3 mb 0.00 in0.0 mm 0.00 in0.0 mm 0.00 in0.0 mm
04:00 PM 45.0°F7.2°C 12.9°F-10.6°C 27% 10.5 mph N16.9 kmh N 22.2 mph35.7 kmh 30.07 in1018.3 mb 0.00 in0.0 mm 0.00 in0.0 mm 0.00 in0.0 mm
04:17 PM 45.0°F7.2°C 13.8°F-10.1°C 28% 8.2 mph N13.2 kmh N 16.1 mph25.9 kmh 30.07 in1018.3 mb 0.00 in0.0 mm 0.00 in0.0 mm 0.00 in0.0 mm
04:39 PM 45.0°F7.2°C 13.8°F-10.1°C 28% 9.9 mph NNW15.9 kmh NNW 13.9 mph22.4 kmh 30.07 in1018.3 mb 0.00 in0.0 mm 0.00 in0.0 mm 0.00 in0.0 mm
04:40 PM 45.0°F7.2°C 13.8°F-10.1°C 28% 11.1 mph NW17.9 kmh NW 16.8 mph27.0 kmh 30.07 in1018.3 mb 0.00 in0.0 mm 0.00 in0.0 mm 0.00 in0.0 mm
04:41 PM 45.0°F7.2°C 13.8°F-10.1°C 28% 11.1 mph NW17.9 kmh NW 16.8 mph27.0 kmh 30.07 in1018.3 mb 0.00 in0.0 mm 0.00 in0.0 mm 0.00 in0.0 mm
04:42 PM 45.0°F7.2°C 13.8°F-10.1°C 28% 11.2 mph NW18.0 kmh NW 16.8 mph27.0 kmh 30.07 in1018.3 mb 0.00 in0.0 mm 0.00 in0.0 mm 0.00 in0.0 mm
04:43 PM 45.0°F7.2°C 12.9°F-10.6°C 27% 9.9 mph NW15.9 kmh NW 16.8 mph27.0 kmh 30.07 in1018.3 mb 0.00 in0.0 mm 0.00 in0.0 mm 0.00 in0.0 mm
04:44 PM 45.0°F7.2°C 12.9°F-10.6°C 27% 9.7 mph NW15.6 kmh NW 16.8 mph27.0 kmh 30.07 in1018.3 mb 0.00 in0.0 mm 0.00 in0.0 mm 0.00 in0.0 mm
04:45 PM 45.0°F7.2°C 12.9°F-10.6°C 27% 9.6 mph NNW15.4 kmh NNW 16.8 mph27.0 kmh 30.07 in1018.3 mb 0.00 in0.0 mm 0.00 in0.0 mm 0.00 in0.0 mm
05:00 PM 45.0°F7.2°C 13.8°F-10.1°C 28% 9.1 mph N14.6 kmh N 15.7 mph25.3 kmh 30.07 in1018.3 mb 0.00 in0.0 mm 0.00 in0.0 mm 0.00 in0.0 mm
05:15 PM 44.6°F7.0°C 13.5°F-10.3°C 28% 11.7 mph N18.8 kmh N 20.0 mph32.2 kmh 30.07 in1018.3 mb 0.00 in0.0 mm 0.00 in0.0 mm 0.00 in0.0 mm
05:30 PM 43.7°F6.5°C 12.7°F-10.7°C 28% 11.8 mph N19.0 kmh N 19.0 mph30.6 kmh 30.07 in1018.3 mb 0.00 in0.0 mm 0.00 in0.0 mm 0.00 in0.0 mm
05:45 PM 42.8°F6.0°C 11.9°F-11.2°C 28% 9.8 mph N15.8 kmh N 17.5 mph28.2 kmh 30.07 in1018.3 mb 0.00 in0.0 mm 0.00 in0.0 mm 0.00 in0.0 mm
06:00 PM 42.1°F5.6°C 12.1°F-11.1°C 29% 11.9 mph N19.2 kmh N 19.3 mph31.1 kmh 30.07 in1018.3 mb 0.00 in0.0 mm 0.00 in0.0 mm 0.00 in0.0 mm
06:15 PM 41.4°F5.2°C 12.2°F-11.0°C 30% 11.0 mph N17.7 kmh N 20.4 mph32.8 kmh 30.07 in1018.3 mb 0.00 in0.0 mm 0.00 in0.0 mm 0.00 in0.0 mm
06:30 PM 40.6°F4.8°C 11.6°F-11.3°C 30% 10.8 mph N17.4 kmh N 20.8 mph33.5 kmh 30.07 in1018.3 mb 0.00 in0.0 mm 0.00 in0.0 mm 0.00 in0.0 mm
06:45 PM 39.9°F4.4°C 11.7°F-11.3°C 31% 9.6 mph N15.4 kmh N 17.2 mph27.7 kmh 30.04 in1017.3 mb 0.00 in0.0 mm 0.00 in0.0 mm 0.00 in0.0 mm
07:00 PM 39.2°F4.0°C 11.8°F-11.2°C 32% 9.1 mph N14.6 kmh N 16.8 mph27.0 kmh 30.07 in1018.3 mb 0.00 in0.0 mm 0.00 in0.0 mm 0.00 in0.0 mm
07:15 PM 37.9°F3.3°C 10.7°F-11.8°C 32% 7.4 mph N11.9 kmh N 11.8 mph19.0 kmh 30.09 in1019.0 mb 0.00 in0.0 mm 0.00 in0.0 mm 0.00 in0.0 mm
07:30 PM 37.6°F3.1°C 11.0°F-11.7°C 33% 9.0 mph N14.5 kmh N 15.0 mph24.1 kmh 30.09 in1019.0 mb 0.00 in0.0 mm 0.00 in0.0 mm 0.00 in0.0 mm
07:45 PM 36.7°F2.6°C 10.2°F-12.1°C 33% 7.1 mph N11.4 kmh N 11.8 mph19.0 kmh 30.09 in1019.0 mb 0.00 in0.0 mm 0.00 in0.0 mm 0.00 in0.0 mm
08:00 PM 35.8°F2.1°C 10.1°F-12.2°C 34% 5.4 mph N8.7 kmh N 8.9 mph14.3 kmh 30.12 in1020.0 mb 0.00 in0.0 mm 0.00 in0.0 mm 0.00 in0.0 mm
08:15 PM 35.2°F1.8°C 9.6°F-12.4°C 34% 6.7 mph N10.8 kmh N 11.8 mph19.0 kmh 30.12 in1020.0 mb 0.00 in0.0 mm 0.00 in0.0 mm 0.00 in0.0 mm
08:30 PM 34.9°F1.6°C 9.3°F-12.6°C 34% 7.1 mph N11.4 kmh N 13.6 mph21.9 kmh 30.12 in1020.0 mb 0.00 in0.0 mm 0.00 in0.0 mm 0.00 in0.0 mm
08:45 PM 34.9°F1.6°C 9.3°F-12.6°C 34% 6.9 mph N11.1 kmh N 12.2 mph19.6 kmh 30.12 in1020.0 mb 0.00 in0.0 mm 0.00 in0.0 mm 0.00 in0.0 mm
09:00 PM 34.2°F1.2°C 8.7°F-12.9°C 34% 3.6 mph NNE5.8 kmh NNE 8.9 mph14.3 kmh 30.15 in1021.0 mb 0.00 in0.0 mm 0.00 in0.0 mm 0.00 in0.0 mm
09:15 PM 33.3°F0.7°C 7.9°F-13.4°C 34% 0.1 mph NE0.2 kmh NE 1.8 mph2.9 kmh 30.12 in1020.0 mb 0.00 in0.0 mm 0.00 in0.0 mm 0.00 in0.0 mm
09:30 PM 32.7°F0.4°C 7.4°F-13.7°C 34% 0.2 mph NE0.3 kmh NE 5.0 mph8.0 kmh 30.12 in1020.0 mb 0.00 in0.0 mm 0.00 in0.0 mm 0.00 in0.0 mm
09:45 PM 32.0°F0.0°C 6.8°F-14.0°C 34% Calm Calm -- 30.12 in1020.0 mb 0.00 in0.0 mm 0.00 in0.0 mm 0.00 in0.0 mm
10:00 PM 32.0°F0.0°C 7.4°F-13.7°C 35% 5.3 mph N8.5 kmh N 9.3 mph15.0 kmh 30.12 in1020.0 mb 0.00 in0.0 mm 0.00 in0.0 mm 0.00 in0.0 mm
10:15 PM 31.8°F-0.1°C 7.2°F-13.8°C 35% 2.4 mph N3.9 kmh N 7.9 mph12.7 kmh 30.12 in1020.0 mb 0.00 in0.0 mm 0.00 in0.0 mm 0.00 in0.0 mm
10:30 PM 31.6°F-0.2°C 7.1°F-13.8°C 35% 2.0 mph N3.2 kmh N 7.9 mph12.7 kmh 30.12 in1020.0 mb 0.00 in0.0 mm 0.00 in0.0 mm 0.00 in0.0 mm
10:45 PM 31.5°F-0.3°C 6.9°F-13.9°C 35% 2.6 mph N4.2 kmh N 7.9 mph12.7 kmh 30.12 in1020.0 mb 0.00 in0.0 mm 0.00 in0.0 mm 0.00 in0.0 mm
11:00 PM 31.1°F-0.5°C 6.6°F-14.1°C 35% 0.5 mph N0.8 kmh N 7.5 mph12.1 kmh 30.12 in1020.0 mb 0.00 in0.0 mm 0.00 in0.0 mm 0.00 in0.0 mm
11:15 PM 30.2°F-1.0°C 6.4°F-14.2°C 36% 0.1 mph N0.2 kmh N 3.6 mph5.8 kmh 30.12 in1020.0 mb 0.00 in0.0 mm 0.00 in0.0 mm 0.00 in0.0 mm
11:30 PM 29.8°F-1.2°C 6.1°F-14.4°C 36% Calm Calm -- 30.12 in1020.0 mb 0.00 in0.0 mm 0.00 in0.0 mm 0.00 in0.0 mm
11:45 PM 29.5°F-1.4°C 5.8°F-14.6°C 36% 0.1 mph NNW0.2 kmh NNW 1.8 mph2.9 kmh 30.12 in1020.0 mb 0.00 in0.0 mm 0.00 in0.0 mm 0.00 in0.0 mm